Time;durP1;ratioP1;P1;durP2;ratioP2;P2;SDS_P1;SDS_P2;PMS_P1;PMS_P2;Temp;Humidity;BMP_temperature;BMP_pressure;BME280_temperature;BME280_humidity;BME280_pressure;Samples;Min_cycle;Max_cycle;Signal;HPM_P1;HPM_P2
2022/01/26 04:01:31;;;;;;;85.80;27.35;;;2.70;99.90;;;;;;5499386;22;20020;-82
2022/01/26 04:03:56;;;;;;;91.28;29.55;;;2.70;99.90;;;;;;4974940;28;20483;-82
2022/01/26 04:06:23;;;;;;;87.07;28.48;;;2.70;99.90;;;;;;4974268;28;20042;-82
2022/01/26 04:08:48;;;;;;;82.60;27.25;;;2.80;99.90;;;;;;4974051;28;20050;-82
2022/01/26 04:11:30;;;;;;;84.30;26.42;;;2.70;99.90;;;;;;4973913;28;20101;-82
2022/01/26 04:14:00;;;;;;;86.88;26.88;;;2.70;99.90;;;;;;4974336;28;20061;-83
2022/01/26 04:16:26;;;;;;;83.60;28.38;;;2.70;99.90;;;;;;4974743;28;20454;-82
2022/01/26 04:18:54;;;;;;;85.85;27.77;;;2.70;99.90;;;;;;4957753;28;20047;-83
2022/01/26 04:23:57;;;;;;;88.60;27.77;;;2.70;99.90;;;;;;4973843;28;20047;-82
2022/01/26 04:26:34;;;;;;;84.03;26.80;;;2.60;99.90;;;;;;4973757;28;20407;-83
2022/01/26 04:29:06;;;;;;;83.97;26.73;;;2.60;99.90;;;;;;4974068;28;20070;-82
2022/01/26 04:31:32;;;;;;;90.47;26.23;;;2.70;99.90;;;;;;4973642;28;20046;-82
2022/01/26 04:33:57;;;;;;;84.70;26.23;;;2.60;99.90;;;;;;4973860;28;20121;-82
2022/01/26 04:36:35;;;;;;;87.57;26.80;;;2.70;99.90;;;;;;4973533;28;20491;-82
2022/01/26 04:39:06;;;;;;;74.65;24.90;;;2.70;99.90;;;;;;4957450;28;20502;-82
2022/01/26 04:41:38;;;;;;;74.43;24.10;;;2.60;99.90;;;;;;4973517;28;20092;-83
2022/01/26 04:44:15;;;;;;;79.15;25.67;;;2.60;99.90;;;;;;4973376;28;20050;-83
2022/01/26 04:46:40;;;;;;;80.80;24.65;;;2.70;99.90;;;;;;4973554;28;20039;-82
2022/01/26 04:49:06;;;;;;;81.38;26.48;;;2.60;99.90;;;;;;4973536;28;20046;-82
2022/01/26 04:51:31;;;;;;;81.20;26.50;;;2.60;99.90;;;;;;4973245;28;20053;-82
2022/01/26 04:53:57;;;;;;;81.57;25.83;;;2.60;99.90;;;;;;4973377;28;20479;-82
2022/01/26 04:56:23;;;;;;;77.30;24.10;;;2.60;99.90;;;;;;4973231;28;20050;-83
2022/01/26 04:58:48;;;;;;;68.68;22.52;;;2.60;99.90;;;;;;4973137;28;20064;-83
2022/01/26 05:01:14;;;;;;;79.40;24.73;;;2.50;99.90;;;;;;4972943;28;20054;-83
2022/01/26 05:03:40;;;;;;;76.03;24.15;;;2.60;99.90;;;;;;4973481;28;20035;-83
2022/01/26 05:06:05;;;;;;;73.55;25.33;;;2.50;99.90;;;;;;4974682;28;20038;-82
2022/01/26 05:08:31;;;;;;;69.05;23.13;;;2.60;99.90;;;;;;4973135;28;20046;-83
2022/01/26 05:10:57;;;;;;;71.70;24.75;;;2.50;99.90;;;;;;4973146;28;20414;-83
2022/01/26 05:13:23;;;;;;;72.88;24.17;;;2.60;99.90;;;;;;4975324;28;20082;-83
2022/01/26 05:15:49;;;;;;;73.97;25.25;;;2.60;99.90;;;;;;4961296;28;20047;-83
2022/01/26 05:18:14;;;;;;;79.47;23.92;;;2.60;99.90;;;;;;4977187;28;20042;-83
2022/01/26 05:20:40;;;;;;;79.60;25.13;;;2.60;99.90;;;;;;4977032;28;20467;-83
2022/01/26 05:23:08;;;;;;;77.35;24.15;;;2.60;99.90;;;;;;4977243;28;20094;-82
2022/01/26 05:25:33;;;;;;;75.13;24.95;;;2.60;99.90;;;;;;4977206;28;20070;-83
2022/01/26 05:27:59;;;;;;;73.45;24.13;;;2.60;99.90;;;;;;4976901;28;20522;-82
2022/01/26 05:30:27;;;;;;;75.05;25.05;;;2.60;99.90;;;;;;4977244;28;20039;-83
2022/01/26 05:32:52;;;;;;;74.03;24.65;;;2.60;99.90;;;;;;4976649;28;20557;-82
2022/01/26 05:35:18;;;;;;;74.22;25.17;;;2.60;99.90;;;;;;4976875;28;20047;-83
2022/01/26 05:37:44;;;;;;;83.97;27.95;;;2.50;99.90;;;;;;4976806;28;20054;-83
2022/01/26 05:40:11;;;;;;;70.55;22.08;;;2.60;99.90;;;;;;4976667;28;20185;-82
2022/01/26 05:42:37;;;;;;;73.78;24.90;;;2.50;99.90;;;;;;4976661;28;20503;-83
2022/01/26 05:45:06;;;;;;;74.38;24.75;;;2.50;99.90;;;;;;4976642;28;20155;-83
2022/01/26 05:47:33;;;;;;;64.75;21.02;;;2.60;99.90;;;;;;4976909;28;20078;-83
2022/01/26 05:50:00;;;;;;;68.18;22.67;;;2.60;99.90;;;;;;4976640;28;20053;-83
2022/01/26 05:52:26;;;;;;;68.65;22.65;;;2.50;99.90;;;;;;4977999;28;20121;-83
2022/01/26 05:54:51;;;;;;;76.43;25.75;;;2.60;99.90;;;;;;4978866;28;20146;-83
2022/01/26 05:57:17;;;;;;;75.63;23.77;;;2.60;99.90;;;;;;4976555;28;20566;-82
2022/01/26 05:59:42;;;;;;;68.13;21.27;;;2.50;99.90;;;;;;4976333;28;20053;-82
2022/01/26 06:02:08;;;;;;;78.72;25.35;;;2.50;99.90;;;;;;4976212;28;20078;-82
2022/01/26 06:04:34;;;;;;;69.78;24.20;;;2.50;99.90;;;;;;4976587;28;20043;-82
2022/01/26 06:06:59;;;;;;;73.22;23.80;;;2.60;99.90;;;;;;4977819;28;20435;-83
2022/01/26 06:09:25;;;;;;;82.45;26.20;;;2.60;99.90;;;;;;4976119;28;20047;-83
2022/01/26 06:11:51;;;;;;;81.20;25.80;;;2.60;99.90;;;;;;4976351;28;20395;-82
2022/01/26 06:14:16;;;;;;;74.78;23.85;;;2.60;99.90;;;;;;4976198;28;20050;-82
2022/01/26 06:16:42;;;;;;;66.50;22.63;;;2.60;99.90;;;;;;4976081;28;20058;-83
2022/01/26 06:19:08;;;;;;;73.25;24.05;;;2.60;99.90;;;;;;4977560;28;20051;-83
2022/01/26 06:21:33;;;;;;;76.70;27.35;;;2.60;99.90;;;;;;4959983;28;20039;-84
2022/01/26 06:23:59;;;;;;;81.68;27.42;;;2.60;99.90;;;;;;4976008;28;20391;-84
2022/01/26 06:26:25;;;;;;;73.60;25.10;;;2.60;99.90;;;;;;4975094;28;20039;-82
2022/01/26 06:28:50;;;;;;;79.47;26.88;;;2.60;99.90;;;;;;4975865;28;20525;-83
2022/01/26 06:31:17;;;;;;;86.80;28.33;;;2.60;99.90;;;;;;4943626;28;20561;-83
2022/01/26 06:33:46;;;;;;;80.20;26.35;;;2.60;99.90;;;;;;4975727;28;20394;-82
2022/01/26 06:36:13;;;;;;;78.10;26.20;;;2.60;99.90;;;;;;4977094;28;20039;-77
2022/01/26 06:38:44;;;;;;;77.00;28.00;;;2.60;99.90;;;;;;4977432;28;20041;-85
2022/01/26 06:41:10;;;;;;;78.60;26.95;;;2.60;99.90;;;;;;4977288;28;20039;-83
2022/01/26 06:43:45;;;;;;;87.22;30.08;;;2.60;99.90;;;;;;4976788;28;20043;-84
2022/01/26 06:46:17;;;;;;;86.30;31.77;;;2.60;99.90;;;;;;4977689;28;20114;-84
2022/01/26 06:48:58;;;;;;;83.20;30.00;;;2.70;99.90;;;;;;4959664;28;20034;-83
2022/01/26 06:51:24;;;;;;;93.53;31.80;;;2.70;99.90;;;;;;4975451;28;20502;-84
2022/01/26 06:53:50;;;;;;;83.85;31.33;;;2.70;99.90;;;;;;4975502;28;20053;-83
2022/01/26 06:56:15;;;;;;;87.40;29.77;;;2.70;99.90;;;;;;4975759;28;20071;-84
2022/01/26 06:58:41;;;;;;;92.88;32.88;;;2.70;99.90;;;;;;4959362;28;20054;-84
2022/01/26 07:01:06;;;;;;;92.45;34.40;;;2.70;99.90;;;;;;4975706;28;20047;-83
2022/01/26 07:03:32;;;;;;;96.10;32.70;;;2.70;99.90;;;;;;4975692;28;20039;-84
2022/01/26 07:05:58;;;;;;;99.50;35.40;;;2.80;99.90;;;;;;4976806;28;20100;-84
2022/01/26 07:08:23;;;;;;;94.50;33.83;;;2.80;99.90;;;;;;4975325;28;20050;-84
2022/01/26 07:10:51;;;;;;;93.32;32.90;;;2.70;99.90;;;;;;4976234;28;20047;-83
2022/01/26 07:13:17;;;;;;;90.93;31.90;;;2.70;99.90;;;;;;4958941;28;20101;-83
2022/01/26 07:21:26;;;;;;;92.22;33.20;;;2.80;99.90;;;;;;4976430;28;20046;-83
2022/01/26 07:23:56;;;;;;;102.85;37.85;;;2.80;99.90;;;;;;4975007;28;20039;-84
2022/01/26 07:26:25;;;;;;;109.03;38.63;;;2.80;99.90;;;;;;4974889;28;20034;-85
2022/01/26 07:28:51;;;;;;;108.85;34.60;;;2.80;99.90;;;;;;4974929;28;20042;-84
2022/01/26 07:31:18;;;;;;;100.15;34.40;;;2.80;99.90;;;;;;4974997;28;20045;-83
2022/01/26 07:33:43;;;;;;;109.88;40.40;;;2.80;99.90;;;;;;4974729;28;20042;-84
2022/01/26 07:36:10;;;;;;;119.55;43.50;;;2.90;99.90;;;;;;4958345;28;20073;-84
2022/01/26 07:38:36;;;;;;;108.70;37.40;;;2.80;99.90;;;;;;4973603;28;20070;-85
2022/01/26 07:41:02;;;;;;;114.93;39.38;;;2.90;99.90;;;;;;4975181;28;20081;-85
2022/01/26 07:43:28;;;;;;;101.55;35.35;;;2.90;99.90;;;;;;4973474;28;20502;-85
2022/01/26 07:45:53;;;;;;;123.68;42.92;;;2.90;99.90;;;;;;4973921;28;20082;-84
2022/01/26 07:48:19;;;;;;;121.95;43.58;;;2.90;99.90;;;;;;4973746;28;20070;-84
2022/01/26 07:50:45;;;;;;;122.97;41.38;;;2.90;99.90;;;;;;4973273;28;20057;-85
2022/01/26 07:53:15;;;;;;;124.47;45.83;;;2.90;99.90;;;;;;4974196;28;20499;-84
2022/01/26 07:55:41;;;;;;;120.57;43.55;;;2.90;99.90;;;;;;4973299;28;20101;-84
2022/01/26 07:58:09;;;;;;;131.07;45.28;;;2.90;99.90;;;;;;4973354;28;20117;-84
2022/01/26 08:00:34;;;;;;;136.90;46.92;;;2.90;99.90;;;;;;4974620;28;20081;-84
2022/01/26 08:03:00;;;;;;;131.57;44.70;;;2.90;99.90;;;;;;4973330;28;20475;-84
2022/01/26 08:05:26;;;;;;;142.52;48.80;;;2.90;99.90;;;;;;4974620;28;20070;-84
2022/01/26 08:07:51;;;;;;;136.52;49.03;;;3.00;99.90;;;;;;4973068;28;20058;-83
2022/01/26 08:10:17;;;;;;;142.13;48.67;;;3.00;99.90;;;;;;4957046;28;20050;-83
2022/01/26 08:12:43;;;;;;;144.00;49.88;;;3.00;99.90;;;;;;4972945;28;20458;-83
2022/01/26 08:15:09;;;;;;;132.07;46.05;;;3.00;99.90;;;;;;4973373;28;20073;-84
2022/01/26 08:17:36;;;;;;;139.70;48.78;;;3.00;99.90;;;;;;4974206;28;20034;-83
2022/01/26 08:20:04;;;;;;;141.55;48.40;;;3.00;99.90;;;;;;4972743;28;20047;-83
2022/01/26 08:22:31;;;;;;;143.80;47.95;;;3.10;99.90;;;;;;4973948;28;20031;-83
2022/01/26 08:24:56;;;;;;;140.50;49.45;;;3.10;99.90;;;;;;4973446;28;20070;-84
2022/01/26 08:27:25;;;;;;;149.90;50.75;;;3.10;99.90;;;;;;4957679;28;20093;-84
2022/01/26 08:29:55;;;;;;;151.52;52.45;;;3.10;99.90;;;;;;4976458;28;20042;-83
2022/01/26 08:32:20;;;;;;;146.18;50.65;;;3.10;99.90;;;;;;4985253;28;20050;-83
2022/01/26 08:34:46;;;;;;;150.77;51.08;;;3.10;99.90;;;;;;4989859;28;20042;-83
2022/01/26 08:37:12;;;;;;;137.65;47.08;;;3.10;99.90;;;;;;4994522;28;20035;-83
2022/01/26 08:39:38;;;;;;;151.68;50.55;;;3.10;99.90;;;;;;4977973;28;20046;-83
2022/01/26 08:42:08;;;;;;;144.05;50.13;;;3.10;99.90;;;;;;4975403;28;20101;-82
2022/01/26 08:44:35;;;;;;;162.93;54.97;;;3.10;99.90;;;;;;4975120;28;20078;-83
2022/01/26 08:47:02;;;;;;;165.80;52.67;;;3.10;99.90;;;;;;4973789;28;20046;-83
2022/01/26 08:49:30;;;;;;;150.43;52.95;;;3.10;99.90;;;;;;4957169;28;20082;-83
2022/01/26 08:51:55;;;;;;;160.25;54.75;;;3.20;99.90;;;;;;4973450;28;20074;-84
2022/01/26 08:54:22;;;;;;;172.00;56.15;;;3.20;99.90;;;;;;4974839;28;20070;-84
2022/01/26 08:56:49;;;;;;;171.25;57.13;;;3.20;99.90;;;;;;4956993;28;20039;-87
2022/01/26 08:59:15;;;;;;;173.75;56.58;;;3.20;99.90;;;;;;4956930;28;20047;-83
2022/01/26 09:01:41;;;;;;;168.98;54.33;;;3.20;99.90;;;;;;4973092;28;20101;-85
2022/01/26 09:04:06;;;;;;;155.52;53.75;;;3.30;99.90;;;;;;4973259;28;20035;-84
2022/01/26 09:06:59;;;;;;;;;;;;;;;;;;;;;
2022/01/26 09:09:41;;;;;;;138.88;51.65;;;3.40;99.90;;;;;;4972411;28;20137;-84
2022/01/26 09:12:12;;;;;;;121.78;46.08;;;3.40;99.90;;;;;;4973285;28;20051;-85
2022/01/26 09:14:48;;;;;;;103.30;39.67;;;3.50;99.90;;;;;;4973533;28;20112;-84
2022/01/26 09:17:15;;;;;;;102.88;39.40;;;3.50;99.90;;;;;;4973021;28;20110;-86
2022/01/26 09:19:43;;;;;;;91.50;35.20;;;3.60;99.90;;;;;;4973817;28;20043;-84
2022/01/26 09:22:13;;;;;;;93.68;37.58;;;3.60;99.90;;;;;;4957281;28;20043;-81
2022/01/26 09:24:41;;;;;;;95.40;37.17;;;3.70;99.90;;;;;;4973102;28;20035;-87
2022/01/26 09:27:08;;;;;;;90.30;37.28;;;3.70;99.90;;;;;;4973301;28;20046;-85
2022/01/26 09:29:34;;;;;;;88.72;36.05;;;3.70;99.90;;;;;;4972984;28;20061;-86
2022/01/26 09:32:00;;;;;;;88.70;34.15;;;3.80;99.90;;;;;;4972758;28;20133;-85
2022/01/26 09:34:29;;;;;;;87.35;33.38;;;3.80;99.90;;;;;;4956949;28;20093;-86
2022/01/26 09:36:55;;;;;;;95.15;38.53;;;3.80;99.90;;;;;;4972807;28;20049;-86
2022/01/26 09:39:22;;;;;;;93.50;35.90;;;3.80;99.90;;;;;;4974270;28;20039;-85
2022/01/26 09:41:50;;;;;;;91.47;35.70;;;3.80;99.90;;;;;;4956804;28;20089;-88
2022/01/26 09:44:17;;;;;;;97.90;36.88;;;3.80;99.90;;;;;;4972811;28;20498;-84
2022/01/26 09:46:44;;;;;;;100.88;37.42;;;3.90;99.90;;;;;;4973942;28;20507;-85
2022/01/26 09:49:10;;;;;;;97.78;38.00;;;3.90;99.90;;;;;;4972951;28;20419;-85
2022/01/26 09:51:42;;;;;;;89.75;34.75;;;3.90;99.90;;;;;;4972497;28;20057;-85
2022/01/26 09:54:15;;;;;;;86.45;33.97;;;3.90;99.90;;;;;;4956858;28;20039;-85
2022/01/26 09:56:47;;;;;;;98.00;38.72;;;3.90;99.90;;;;;;4956580;28;20262;-85
2022/01/26 09:59:15;;;;;;;97.05;36.72;;;3.90;99.90;;;;;;4957014;28;20384;-85
2022/01/26 10:01:43;;;;;;;96.22;37.28;;;3.90;99.90;;;;;;4977634;28;20043;-83
2022/01/26 10:04:28;;;;;;;96.25;38.58;;;3.90;99.90;;;;;;4976666;28;20065;-85
2022/01/26 10:07:09;;;;;;;95.07;35.05;;;3.90;99.90;;;;;;4976414;28;20050;-84
2022/01/26 10:17:45;;;;;;;88.65;35.10;;;4.00;99.90;;;;;;4976342;28;20043;-84
2022/01/26 10:20:15;;;;;;;96.35;35.83;;;4.00;99.90;;;;;;4976245;28;20051;-85
2022/01/26 10:22:42;;;;;;;97.05;33.45;;;4.00;99.90;;;;;;4975965;28;20074;-85
2022/01/26 10:25:08;;;;;;;99.03;36.20;;;4.00;99.90;;;;;;4959883;28;20085;-84
2022/01/26 10:27:43;;;;;;;88.43;30.45;;;4.00;99.90;;;;;;4976043;28;20061;-84
2022/01/26 10:30:12;;;;;;;94.53;37.22;;;4.00;99.90;;;;;;4976494;28;20038;-84
2022/01/26 10:32:41;;;;;;;99.82;36.90;;;4.00;99.90;;;;;;4975978;28;20039;-85
2022/01/26 10:35:08;;;;;;;89.95;34.28;;;4.00;99.90;;;;;;4975854;28;20093;-85
2022/01/26 10:37:35;;;;;;;101.45;36.00;;;4.00;99.90;;;;;;4975875;28;20097;-85
2022/01/26 10:40:20;;;;;;;100.43;38.80;;;4.00;99.90;;;;;;4975994;28;20047;-85
2022/01/26 10:43:14;;;;;;;98.13;36.60;;;4.00;99.90;;;;;;4977229;28;20039;-86
2022/01/26 10:45:48;;;;;;;102.18;38.80;;;4.10;99.90;;;;;;4972913;28;20051;-85
2022/01/26 10:48:44;;;;;;;101.10;36.92;;;4.10;99.90;;;;;;4975871;28;20052;-85
2022/01/26 10:51:34;;;;;;;;;;;4.10;99.90;;;;;;4959989;28;20053;-83
2022/01/26 10:54:11;;;;;;;95.82;33.90;;;4.10;99.90;;;;;;4975920;28;20255;-86
2022/01/26 10:56:37;;;;;;;95.10;34.63;;;4.10;99.90;;;;;;4975681;28;20050;-87
2022/01/26 10:59:03;;;;;;;97.35;36.28;;;4.10;99.90;;;;;;4975900;28;20126;-85
2022/01/26 11:01:28;;;;;;;94.53;37.33;;;4.10;99.90;;;;;;4975767;28;20058;-84
2022/01/26 11:03:55;;;;;;;90.68;35.53;;;4.10;99.90;;;;;;4975629;28;20376;-85
2022/01/26 11:06:20;;;;;;;98.13;36.05;;;4.10;99.90;;;;;;4975344;28;20054;-84
2022/01/26 11:08:48;;;;;;;93.15;35.72;;;4.10;99.90;;;;;;4975344;28;20042;-85
2022/01/26 11:11:24;;;;;;;88.88;33.38;;;4.10;99.90;;;;;;4974874;28;20053;-84
2022/01/26 11:13:50;;;;;;;90.72;35.42;;;4.10;99.90;;;;;;4975676;28;20054;-84
2022/01/26 11:16:20;;;;;;;96.55;36.08;;;4.10;99.90;;;;;;4974954;28;20431;-84
2022/01/26 11:18:52;;;;;;;104.22;35.75;;;4.20;99.90;;;;;;4958909;28;20038;-85
2022/01/26 11:21:35;;;;;;;90.75;36.28;;;4.20;99.90;;;;;;4974961;28;20051;-85
2022/01/26 11:24:10;;;;;;;79.88;35.03;;;4.20;99.90;;;;;;4975904;28;20391;-87
2022/01/26 11:26:38;;;;;;;86.47;32.90;;;4.20;99.90;;;;;;4975416;28;20118;-83
2022/01/26 11:29:36;;;;;;;76.95;31.27;;;4.20;99.90;;;;;;4958763;28;20089;-84
2022/01/26 11:32:06;;;;;;;84.45;31.23;;;4.20;99.90;;;;;;4956985;28;20058;-83
2022/01/26 11:34:33;;;;;;;77.05;30.50;;;4.20;99.90;;;;;;4974706;28;20487;-85
2022/01/26 11:37:00;;;;;;;82.53;31.83;;;4.30;99.90;;;;;;4974515;28;20050;-85
2022/01/26 11:42:34;;;;;;;78.35;29.38;;;4.30;99.90;;;;;;4974425;28;20047;-85
2022/01/26 11:45:34;;;;;;;82.80;32.70;;;4.20;99.90;;;;;;4974607;28;20038;-85
2022/01/26 11:48:08;;;;;;;86.30;32.15;;;4.20;99.90;;;;;;4974319;28;20116;-85
2022/01/26 11:50:34;;;;;;;92.05;34.05;;;4.20;99.90;;;;;;4974614;28;20446;-84
2022/01/26 11:53:09;;;;;;;96.63;33.92;;;4.20;99.90;;;;;;4974161;28;20129;-85
2022/01/26 11:55:40;;;;;;;95.68;36.35;;;4.20;99.90;;;;;;4974379;28;20361;-85
2022/01/26 11:58:18;;;;;;;91.55;32.33;;;4.20;99.90;;;;;;4958052;28;20098;-85
2022/01/26 12:04:08;;;;;;;92.15;34.20;;;4.20;99.90;;;;;;4974232;28;20134;-84
2022/01/26 12:06:40;;;;;;;88.82;34.65;;;4.20;99.90;;;;;;4974381;28;20054;-85
2022/01/26 12:09:07;;;;;;;90.20;34.42;;;4.20;99.90;;;;;;4973819;28;20051;-85
2022/01/26 12:11:34;;;;;;;90.90;33.80;;;4.20;99.90;;;;;;4973808;28;20050;-85
2022/01/26 12:14:02;;;;;;;100.32;35.05;;;4.20;99.90;;;;;;4974023;28;20084;-85
2022/01/26 12:16:39;;;;;;;86.15;31.48;;;4.20;99.90;;;;;;4974074;28;20387;-85
2022/01/26 12:35:54;;;;;;;86.10;33.40;;;4.30;99.90;;;;;;4996147;28;20054;-84
2022/01/26 12:38:40;;;;;;;74.15;28.30;;;4.30;99.90;;;;;;4979298;28;20070;-84
2022/01/26 12:41:31;;;;;;;94.03;33.72;;;4.30;99.90;;;;;;4974949;28;20055;-79
2022/01/26 12:44:09;;;;;;;91.78;33.05;;;4.30;99.90;;;;;;4974205;28;20050;-83
2022/01/26 12:46:37;;;;;;;95.38;33.50;;;4.30;99.90;;;;;;4975168;28;20042;-85
2022/01/26 12:49:07;;;;;;;97.25;32.50;;;4.30;99.90;;;;;;4973158;28;20124;-84
2022/01/26 12:51:42;;;;;;;90.85;33.72;;;4.20;99.90;;;;;;4973887;28;20448;-85
2022/01/26 12:54:08;;;;;;;92.55;34.00;;;4.20;99.90;;;;;;4973426;28;20546;-84
2022/01/26 12:56:33;;;;;;;86.55;31.52;;;4.20;99.90;;;;;;4973314;28;20046;-85
2022/01/26 12:59:12;;;;;;;88.75;32.63;;;4.20;99.90;;;;;;4957027;28;20128;-85
2022/01/26 13:01:39;;;;;;;91.53;33.00;;;4.20;99.90;;;;;;4972883;28;20050;-85
2022/01/26 13:04:07;;;;;;;82.90;29.80;;;4.20;99.90;;;;;;4973055;28;20053;-84
2022/01/26 13:06:40;;;;;;;90.75;31.88;;;4.20;99.90;;;;;;4973447;28;20039;-84
2022/01/26 13:09:19;;;;;;;71.45;26.38;;;4.20;99.90;;;;;;4973219;28;20504;-84
2022/01/26 13:11:47;;;;;;;89.18;30.08;;;4.20;99.90;;;;;;4972830;28;20138;-84
2022/01/26 13:14:33;;;;;;;83.32;28.95;;;4.30;99.90;;;;;;4973313;28;20475;-84
2022/01/26 13:23:04;;;;;;;77.40;28.87;;;4.40;99.90;;;;;;4973024;28;20050;-85
2022/01/26 13:28:20;;;;;;;76.60;27.40;;;4.40;99.90;;;;;;4972895;28;20070;-85
2022/01/26 13:36:33;;;;;;;85.57;33.33;;;4.50;99.90;;;;;;4976968;28;20395;-84
2022/01/26 13:44:39;;;;;;;83.85;32.63;;;4.60;99.90;;;;;;4976903;28;20055;-86
2022/01/26 13:49:46;;;;;;;79.15;27.77;;;4.70;99.90;;;;;;4976883;28;20042;-85
2022/01/26 13:59:51;;;;;;;76.57;31.95;;;4.80;99.90;;;;;;4976702;28;20059;-86
2022/01/26 14:02:17;;;;;;;79.30;31.67;;;4.80;99.90;;;;;;4976423;28;20043;-85
2022/01/26 14:04:43;;;;;;;89.30;31.10;;;4.80;99.90;;;;;;4976423;28;20501;-85
2022/01/26 14:07:09;;;;;;;83.35;32.30;;;4.90;99.90;;;;;;4976521;28;20030;-84
2022/01/26 14:09:36;;;;;;;71.00;30.13;;;4.90;99.90;;;;;;4976508;28;20047;-85
2022/01/26 14:12:02;;;;;;;80.18;29.63;;;4.90;99.90;;;;;;4976553;28;20526;-86
2022/01/26 14:14:41;;;;;;;73.85;27.92;;;5.00;99.90;;;;;;4960491;28;20043;-86
2022/01/26 14:17:14;;;;;;;80.38;31.67;;;5.00;99.90;;;;;;4976196;28;20047;-86
2022/01/26 14:27:39;;;;;;;72.15;27.15;;;5.00;99.90;;;;;;4975941;28;20149;-85
2022/01/26 14:30:25;;;;;;;79.65;28.83;;;5.10;99.90;;;;;;4976116;28;20399;-85
2022/01/26 14:35:47;;;;;;;73.70;28.17;;;5.10;99.90;;;;;;4975660;28;20053;-85
2022/01/26 14:50:55;;;;;;;73.22;27.65;;;5.10;99.90;;;;;;4975648;28;20082;-86
2022/01/26 14:54:47;;;;;;;79.68;29.45;;;5.20;99.90;;;;;;4975223;28;20053;-87
2022/01/26 15:51:14;;;;;;;81.07;31.48;;;5.10;99.90;;;;;;4974404;28;20098;-84
2022/01/26 16:04:18;;;;;;;81.00;31.38;;;5.00;99.90;;;;;;4974269;28;20042;-85
2022/01/26 16:07:39;;;;;;;76.82;29.80;;;5.00;99.90;;;;;;4973310;28;20054;-84
2022/01/26 16:21:21;;;;;;;79.07;31.58;;;5.10;99.90;;;;;;4973111;28;20129;-85
2022/01/26 18:17:49;;;;;;;55.67;22.50;;;5.60;99.90;;;;;;4972305;28;20471;-84
2022/01/26 18:26:11;;;;;;;46.83;20.23;;;5.70;99.90;;;;;;4976077;28;20422;-84
2022/01/26 18:39:49;;;;;;;39.65;15.63;;;5.80;99.90;;;;;;4975939;28;20377;-85
2022/01/26 18:50:18;;;;;;;47.70;18.27;;;5.90;99.90;;;;;;4975214;28;20062;-83
2022/01/26 18:52:44;;;;;;;44.70;18.98;;;5.90;99.90;;;;;;4975425;28;20051;-83
2022/01/26 18:55:13;;;;;;;48.47;19.73;;;5.80;99.90;;;;;;4975301;28;20101;-83
2022/01/26 18:57:39;;;;;;;52.72;19.80;;;5.90;99.90;;;;;;4975245;28;20053;-84
2022/01/26 19:00:05;;;;;;;41.13;17.48;;;5.90;99.90;;;;;;4975314;28;20121;-84
2022/01/26 19:02:31;;;;;;;49.38;19.40;;;5.90;99.90;;;;;;4974891;28;20049;-84
2022/01/26 19:04:57;;;;;;;48.60;18.90;;;5.90;99.90;;;;;;4959379;28;20038;-84
2022/01/26 19:07:24;;;;;;;46.97;17.17;;;5.90;99.90;;;;;;4959143;28;20475;-84
2022/01/26 19:09:51;;;;;;;43.28;17.27;;;5.90;99.90;;;;;;4975012;28;20054;-83
2022/01/26 19:12:19;;;;;;;50.53;18.95;;;5.90;99.90;;;;;;4976447;28;20046;-84
2022/01/26 19:14:53;;;;;;;50.85;19.25;;;5.90;99.90;;;;;;4974943;28;20051;-83
2022/01/26 19:31:41;;;;;;;38.72;15.95;;;5.90;99.90;;;;;;4952152;28;20047;-84
2022/01/26 19:40:00;;;;;;;45.88;18.80;;;5.90;99.90;;;;;;4973154;28;20491;-84
2022/01/26 19:42:50;;;;;;;54.05;21.17;;;5.90;99.90;;;;;;4953919;28;20089;-83
2022/01/26 19:52:13;;;;;;;47.88;19.98;;;5.80;99.90;;;;;;4973362;28;20050;-83
2022/01/26 19:54:46;;;;;;;54.45;22.45;;;5.80;99.90;;;;;;4974577;28;20054;-83
2022/01/26 19:57:11;;;;;;;54.72;22.40;;;5.80;99.90;;;;;;4973304;28;20046;-83
2022/01/26 19:59:37;;;;;;;53.67;24.40;;;5.80;99.90;;;;;;4973255;28;20495;-85
2022/01/26 20:02:04;;;;;;;52.13;22.63;;;5.80;99.90;;;;;;4973040;28;20039;-84
2022/01/26 20:04:32;;;;;;;58.10;23.65;;;5.80;99.90;;;;;;4974486;28;20117;-85
2022/01/26 20:07:03;;;;;;;56.72;23.45;;;5.80;99.90;;;;;;4974590;28;20047;-84
2022/01/26 20:09:35;;;;;;;59.60;25.23;;;5.80;99.90;;;;;;4973119;28;20054;-84
2022/01/26 20:12:05;;;;;;;59.50;24.83;;;5.80;99.90;;;;;;4973134;28;20043;-83
2022/01/26 20:14:35;;;;;;;54.63;23.45;;;5.80;99.90;;;;;;4956813;28;20121;-84
2022/01/26 20:17:03;;;;;;;56.92;24.33;;;5.80;99.90;;;;;;4972755;28;20101;-84
2022/01/26 20:19:29;;;;;;;57.65;23.73;;;5.80;99.90;;;;;;4972853;28;20051;-83
2022/01/26 20:21:54;;;;;;;61.80;24.75;;;5.80;99.90;;;;;;4972823;28;20054;-84
2022/01/26 20:24:21;;;;;;;59.17;23.67;;;5.80;99.90;;;;;;4972734;28;20479;-83
2022/01/26 20:26:46;;;;;;;66.03;26.48;;;5.80;99.90;;;;;;4972603;28;20047;-83
2022/01/26 20:29:12;;;;;;;60.53;25.73;;;5.70;99.90;;;;;;4974232;28;20182;-83
2022/01/26 20:31:39;;;;;;;64.85;25.10;;;5.70;99.90;;;;;;4972481;28;20145;-83
2022/01/26 20:34:05;;;;;;;52.95;21.55;;;5.70;99.90;;;;;;4972401;28;20042;-86
2022/01/26 20:36:31;;;;;;;61.92;27.85;;;5.70;99.90;;;;;;4956468;28;20043;-84
2022/01/26 20:39:01;;;;;;;65.10;28.15;;;5.70;99.90;;;;;;4972315;28;20039;-84
2022/01/26 20:41:27;;;;;;;65.13;27.50;;;5.70;99.90;;;;;;4972409;28;20090;-84
2022/01/26 20:43:53;;;;;;;63.75;25.88;;;5.70;99.90;;;;;;4972003;28;20047;-83
2022/01/26 20:46:19;;;;;;;62.80;25.08;;;5.70;99.90;;;;;;4972475;28;20114;-82
2022/01/26 20:48:45;;;;;;;61.28;26.70;;;5.70;99.90;;;;;;4972373;28;20050;-84
2022/01/26 20:51:11;;;;;;;63.38;27.42;;;5.70;99.90;;;;;;4973905;28;20046;-85
2022/01/26 20:53:37;;;;;;;58.63;26.50;;;5.70;99.90;;;;;;4972253;28;20399;-85
2022/01/26 20:56:03;;;;;;;59.60;24.15;;;5.70;99.90;;;;;;4972513;28;20133;-85
2022/01/26 20:58:29;;;;;;;60.60;27.17;;;5.70;99.90;;;;;;4972314;28;20047;-85
2022/01/26 21:00:54;;;;;;;60.65;26.65;;;5.70;99.90;;;;;;4972063;28;20046;-85
2022/01/26 21:03:22;;;;;;;64.65;25.38;;;5.60;99.90;;;;;;4973986;28;20121;-84
2022/01/26 21:05:48;;;;;;;61.92;25.35;;;5.70;99.90;;;;;;4972546;28;20058;-84
2022/01/26 21:08:16;;;;;;;51.20;21.38;;;5.70;99.90;;;;;;4972700;28;20042;-84
2022/01/26 21:10:42;;;;;;;61.13;25.88;;;5.70;99.90;;;;;;4972752;28;20049;-85
2022/01/26 21:13:07;;;;;;;58.88;23.98;;;5.70;99.90;;;;;;4972924;28;20047;-75
2022/01/26 21:15:33;;;;;;;60.10;26.38;;;5.70;99.90;;;;;;4974627;28;20054;-85
2022/01/26 21:17:59;;;;;;;65.88;25.77;;;5.70;99.90;;;;;;4972991;28;20101;-84
2022/01/26 21:20:25;;;;;;;56.25;24.80;;;5.60;99.90;;;;;;4973087;28;20046;-87
2022/01/26 21:22:53;;;;;;;60.35;27.13;;;5.60;99.90;;;;;;4972984;28;20501;-86
2022/01/26 21:25:18;;;;;;;60.83;24.42;;;5.70;99.90;;;;;;4972956;28;20038;-85
2022/01/26 21:27:44;;;;;;;53.78;23.23;;;5.70;99.90;;;;;;4974566;28;20557;-85
2022/01/26 21:30:11;;;;;;;49.83;21.83;;;5.70;99.90;;;;;;4973399;28;20105;-84
2022/01/26 21:32:38;;;;;;;54.30;24.73;;;5.60;99.90;;;;;;4972726;28;20070;-83
2022/01/26 21:35:04;;;;;;;56.42;24.58;;;5.70;99.90;;;;;;4972913;28;20081;-84
2022/01/26 21:37:30;;;;;;;55.25;24.35;;;5.70;99.90;;;;;;4973089;28;20071;-84
2022/01/26 21:39:56;;;;;;;61.78;25.55;;;5.70;99.90;;;;;;4973110;28;20475;-84
2022/01/26 21:42:22;;;;;;;55.28;23.17;;;5.70;99.90;;;;;;4972687;28;20483;-85
2022/01/26 21:44:48;;;;;;;53.85;25.05;;;5.70;99.90;;;;;;4972733;28;20038;-85
2022/01/26 21:47:14;;;;;;;50.30;21.38;;;5.70;99.90;;;;;;4974219;28;20313;-84
2022/01/26 21:49:41;;;;;;;56.92;28.15;;;5.70;99.90;;;;;;4972718;28;20046;-84
2022/01/26 21:52:07;;;;;;;60.35;24.65;;;5.70;99.90;;;;;;4972935;28;20031;-83
2022/01/26 21:54:33;;;;;;;50.58;21.38;;;5.70;99.90;;;;;;4972689;28;20480;-84
2022/01/26 21:56:59;;;;;;;52.85;22.67;;;5.70;99.90;;;;;;4976040;28;20051;-85
2022/01/26 21:59:24;;;;;;;49.85;23.30;;;5.80;99.90;;;;;;4976423;28;20058;-84
2022/01/26 22:01:50;;;;;;;52.35;21.88;;;5.80;99.90;;;;;;4977438;28;20070;-85
2022/01/26 22:04:16;;;;;;;52.08;23.52;;;5.70;99.90;;;;;;4976303;28;20038;-84
2022/01/26 22:06:42;;;;;;;49.22;22.20;;;5.80;99.90;;;;;;4976201;28;20098;-81
2022/01/26 22:09:08;;;;;;;48.88;24.30;;;5.80;99.90;;;;;;4976259;28;20057;-84
2022/01/26 22:11:36;;;;;;;47.95;20.65;;;5.70;99.90;;;;;;4976146;28;20042;-84
2022/01/26 22:14:02;;;;;;;48.97;22.50;;;5.70;99.90;;;;;;4960317;28;20043;-84
2022/01/26 22:16:27;;;;;;;52.40;24.48;;;5.80;99.90;;;;;;4960061;28;20050;-84
2022/01/26 22:18:53;;;;;;;48.92;21.15;;;5.80;99.90;;;;;;4976098;28;20125;-84
2022/01/26 22:21:19;;;;;;;43.97;19.63;;;5.80;99.90;;;;;;4977129;28;20386;-84